createdAt,value
2022-11-13T00:00:35.491Z,76.33
2022-11-13T00:03:02.032Z,75.64
2022-11-13T00:05:28.495Z,75.05
2022-11-13T00:07:54.920Z,75.58
2022-11-13T00:10:21.409Z,76.17
2022-11-13T00:12:48.268Z,74.74
2022-11-13T00:15:15.148Z,73.57
2022-11-13T00:17:41.562Z,75.04
2022-11-13T00:20:08.338Z,75.78
2022-11-13T00:22:34.827Z,75.57
2022-11-13T00:25:01.280Z,76.09
2022-11-13T00:27:30.200Z,75.54
2022-11-13T00:29:56.973Z,75.84
2022-11-13T00:32:23.669Z,75.51
2022-11-13T00:34:50.414Z,76.49
2022-11-13T00:37:16.940Z,75.48
2022-11-13T00:39:43.814Z,75.51
2022-11-13T00:42:10.330Z,76.67
2022-11-13T00:44:36.774Z,76.20
2022-11-13T00:47:03.284Z,76.56
2022-11-13T00:49:30.358Z,75.43
2022-11-13T00:51:56.874Z,75.93
2022-11-13T00:54:23.333Z,74.95
2022-11-13T00:56:49.850Z,74.92
2022-11-13T00:59:16.286Z,74.90
2022-11-13T01:01:42.823Z,75.35
2022-11-13T01:04:09.292Z,74.89
2022-11-13T01:06:35.935Z,75.58
2022-11-13T01:09:02.618Z,76.33
2022-11-13T01:11:30.165Z,76.60
2022-11-13T01:13:57.129Z,75.01
2022-11-13T01:16:26.469Z,74.48
2022-11-13T01:18:56.643Z,74.23
2022-11-13T01:21:25.773Z,75.65
2022-11-13T01:23:52.353Z,74.60
2022-11-13T01:26:20.183Z,74.84
2022-11-13T01:28:47.436Z,74.77
2022-11-13T01:31:21.138Z,74.90
2022-11-13T01:33:48.220Z,75.39
2022-11-13T01:36:20.580Z,75.03
2022-11-13T01:38:47.746Z,74.19
2022-11-13T01:41:28.939Z,75.08
2022-11-13T01:43:56.376Z,76.83
2022-11-13T01:46:29.986Z,76.25
2022-11-13T01:49:08.568Z,75.91
2022-11-13T01:51:39.487Z,76.42
2022-11-13T01:54:10.123Z,76.01
2022-11-13T01:56:37.231Z,75.65
2022-11-13T01:59:16.691Z,76.74
2022-11-13T02:01:43.318Z,76.94
2022-11-13T02:04:09.885Z,75.52
2022-11-13T02:06:42.257Z,75.72
2022-11-13T02:09:09.949Z,75.66
2022-11-13T02:11:37.827Z,75.11
2022-11-13T02:14:05.577Z,75.98
2022-11-13T02:16:33.228Z,76.60
2022-11-13T02:19:00.371Z,75.40
2022-11-13T02:21:38.421Z,76.06
2022-11-13T02:24:18.061Z,75.98
2022-11-13T02:26:44.895Z,75.41
2022-11-13T02:29:11.404Z,75.77
2022-11-13T02:31:37.981Z,76.12
2022-11-13T02:34:04.463Z,76.70
2022-11-13T02:36:32.099Z,76.16
2022-11-13T02:39:01.625Z,75.62
2022-11-13T02:41:28.112Z,77.17
2022-11-13T02:43:54.536Z,76.42
2022-11-13T02:46:20.994Z,75.80
2022-11-13T02:48:47.422Z,76.50
2022-11-13T02:51:14.300Z,76.22
2022-11-13T02:53:40.791Z,77.03
2022-11-13T02:56:07.587Z,75.74
2022-11-13T02:58:34.054Z,75.29
2022-11-13T03:01:04.483Z,75.10
2022-11-13T03:03:56.588Z,75.54
2022-11-13T03:06:17.352Z,74.80
2022-11-13T03:08:43.806Z,74.71
2022-11-13T03:11:11.392Z,75.07
2022-11-13T03:13:38.241Z,76.61
2022-11-13T03:16:10.152Z,75.29
2022-11-13T03:21:12.944Z,74.89
2022-11-13T03:23:41.169Z,75.23
2022-11-13T03:26:10.335Z,75.23
2022-11-13T03:28:37.520Z,74.54
2022-11-13T03:31:04.514Z,75.42
2022-11-13T03:33:31.523Z,76.14
2022-11-13T03:35:58.114Z,75.61
2022-11-13T03:38:24.686Z,75.27
2022-11-13T03:40:51.663Z,74.47
2022-11-13T03:43:18.459Z,74.47
2022-11-13T03:45:46.494Z,75.13
2022-11-13T03:48:14.179Z,75.35
2022-11-13T03:50:45.622Z,74.50
2022-11-13T03:53:12.658Z,74.76
2022-11-13T03:55:39.313Z,75.27
2022-11-13T03:58:06.007Z,74.99
2022-11-13T04:00:33.081Z,75.36
2022-11-13T04:02:59.636Z,74.83
2022-11-13T04:05:26.251Z,75.11
2022-11-13T04:07:52.766Z,75.63
2022-11-13T04:10:19.279Z,75.11
2022-11-13T04:12:45.733Z,74.85
2022-11-13T04:15:12.203Z,74.82
2022-11-13T04:17:38.668Z,75.21
2022-11-13T04:20:05.691Z,77.11
2022-11-13T04:22:32.167Z,77.82
2022-11-13T04:24:58.624Z,78.97
2022-11-13T04:27:25.082Z,78.63
2022-11-13T04:29:51.572Z,79.30
2022-11-13T04:32:18.078Z,78.39
2022-11-13T04:34:44.530Z,78.06
2022-11-13T04:37:10.994Z,78.93
2022-11-13T04:39:37.484Z,77.95
2022-11-13T04:42:36.307Z,77.28
2022-11-13T04:45:03.040Z,78.26
2022-11-13T04:47:29.505Z,78.48
2022-11-13T04:49:55.925Z,78.26
2022-11-13T04:52:22.440Z,77.71
2022-11-13T04:54:48.869Z,78.05
2022-11-13T04:57:15.305Z,77.26
2022-11-13T04:59:41.738Z,75.01
2022-11-13T05:02:08.214Z,77.01
2022-11-13T05:04:34.816Z,76.64
2022-11-13T05:07:01.370Z,77.02
2022-11-13T05:09:27.985Z,76.46
2022-11-13T05:11:54.427Z,76.79
2022-11-13T05:14:20.898Z,76.66
2022-11-13T05:16:47.371Z,76.60
2022-11-13T05:19:13.815Z,76.12
2022-11-13T05:21:40.314Z,76.05
2022-11-13T05:24:07.130Z,76.47
2022-11-13T05:26:33.587Z,77.62
2022-11-13T05:29:00.857Z,78.95
2022-11-13T05:31:27.389Z,79.33
2022-11-13T05:33:53.989Z,80.10
2022-11-13T05:36:20.832Z,80.51
2022-11-13T05:38:47.606Z,80.69
2022-11-13T05:41:17.307Z,79.44
2022-11-13T05:43:44.409Z,79.61
2022-11-13T05:46:15.100Z,81.25
2022-11-13T05:48:42.482Z,81.78
2022-11-13T05:51:15.247Z,79.86
2022-11-13T05:53:42.350Z,79.48
2022-11-13T05:56:18.468Z,79.21
2022-11-13T05:58:45.547Z,78.25
2022-11-13T06:01:14.426Z,78.04
2022-11-13T06:03:41.302Z,77.61
2022-11-13T06:06:09.367Z,77.92
2022-11-13T06:08:36.394Z,77.94
2022-11-13T06:11:11.349Z,77.91
2022-11-13T06:13:38.679Z,77.85
2022-11-13T06:16:05.314Z,78.90
2022-11-13T06:18:32.664Z,77.89
2022-11-13T06:21:15.354Z,78.49
2022-11-13T06:23:42.328Z,77.32
2022-11-13T06:26:14.710Z,76.71
2022-11-13T06:28:41.579Z,76.76
2022-11-13T06:31:17.187Z,76.33
2022-11-13T06:33:43.818Z,77.24
2022-11-13T06:36:18.896Z,77.50
2022-11-13T06:38:45.495Z,77.42
2022-11-13T06:41:14.174Z,77.06
2022-11-13T06:43:41.072Z,78.83
2022-11-13T06:46:19.960Z,79.42
2022-11-13T06:48:48.585Z,79.17
2022-11-13T06:51:19.028Z,81.36
2022-11-13T06:53:47.356Z,81.38
2022-11-13T06:56:14.877Z,80.67
2022-11-13T06:58:42.365Z,80.97
2022-11-13T07:01:17.599Z,81.31
2022-11-13T07:03:45.017Z,80.50
2022-11-13T07:06:23.136Z,80.74
2022-11-13T07:08:50.499Z,80.33
2022-11-13T07:11:21.900Z,80.22
2022-11-13T07:13:49.308Z,80.37
2022-11-13T07:16:18.256Z,80.55
2022-11-13T07:18:51.579Z,79.54
2022-11-13T07:21:19.030Z,80.53
2022-11-13T07:23:48.857Z,81.32
2022-11-13T07:26:17.238Z,81.30
2022-11-13T07:28:44.248Z,80.53
2022-11-13T07:31:12.868Z,80.70
2022-11-13T07:33:39.449Z,81.71
2022-11-13T07:36:06.555Z,81.74
2022-11-13T07:38:33.028Z,81.44
2022-11-13T07:40:59.850Z,82.66
2022-11-13T07:43:26.538Z,82.13
2022-11-13T07:45:54.870Z,81.04
2022-11-13T07:48:24.891Z,81.93
2022-11-13T07:50:51.570Z,82.03
2022-11-13T07:53:18.930Z,80.48
2022-11-13T07:55:45.942Z,80.88
2022-11-13T07:58:12.585Z,81.52
2022-11-13T08:00:39.642Z,80.16
2022-11-13T08:03:08.064Z,80.91
2022-11-13T08:05:34.624Z,81.48
2022-11-13T08:08:01.184Z,80.94
2022-11-13T08:10:28.140Z,81.30
2022-11-13T08:13:02.594Z,81.46
2022-11-13T08:15:30.091Z,83.51
2022-11-13T08:17:57.660Z,82.02
2022-11-13T08:20:25.169Z,83.55
2022-11-13T08:22:51.740Z,83.00
2022-11-13T08:25:18.748Z,83.49
2022-11-13T08:27:45.586Z,82.80
2022-11-13T08:30:13.253Z,82.98
2022-11-13T08:32:39.751Z,84.21
2022-11-13T08:35:06.547Z,84.26
2022-11-13T08:37:33.543Z,83.67
2022-11-13T08:40:00.002Z,84.15
2022-11-13T08:42:26.442Z,83.98
2022-11-13T08:44:52.890Z,83.33
2022-11-13T08:47:19.362Z,82.74
2022-11-13T08:49:45.814Z,83.45
2022-11-13T08:52:12.305Z,82.90
2022-11-13T08:54:38.755Z,83.92
2022-11-13T08:57:06.235Z,82.70
2022-11-13T08:59:32.788Z,81.52
2022-11-13T09:01:59.797Z,83.13
2022-11-13T09:04:26.751Z,82.73
2022-11-13T09:06:53.583Z,82.51
2022-11-13T09:09:21.917Z,82.93
2022-11-13T09:11:48.406Z,82.24
2022-11-13T09:14:15.096Z,82.07
2022-11-13T09:16:41.965Z,82.35
2022-11-13T09:21:36.067Z,83.76
2022-11-13T09:24:03.525Z,83.02
2022-11-13T09:26:29.997Z,83.77
2022-11-13T09:28:56.791Z,85.03
2022-11-13T09:31:23.437Z,83.35
2022-11-13T09:33:49.895Z,82.77
2022-11-13T09:36:17.387Z,84.33
2022-11-13T09:38:44.232Z,85.33
2022-11-13T09:41:14.852Z,84.60
2022-11-13T09:43:59.616Z,84.58
2022-11-13T09:46:51.808Z,83.98
2022-11-13T09:49:47.318Z,83.32
2022-11-13T09:52:24.761Z,82.38
2022-11-13T09:54:51.575Z,83.34
2022-11-13T09:57:31.150Z,84.17
2022-11-13T10:00:11.919Z,83.80
2022-11-13T10:03:17.680Z,85.00
2022-11-13T10:05:49.928Z,83.38
2022-11-13T10:08:20.019Z,83.53
2022-11-13T10:10:56.305Z,84.24
2022-11-13T10:13:32.483Z,82.21
2022-11-13T10:16:22.612Z,83.40
2022-11-13T10:18:50.855Z,83.99
2022-11-13T10:21:27.769Z,82.53
2022-11-13T10:23:58.158Z,83.12
2022-11-13T10:26:28.018Z,84.01
2022-11-13T10:29:01.007Z,83.26
2022-11-13T10:31:27.491Z,82.86
2022-11-13T10:33:55.305Z,83.71
2022-11-13T10:36:36.241Z,84.91
2022-11-13T10:39:06.696Z,83.56
2022-11-13T10:41:33.763Z,83.50
2022-11-13T10:44:07.720Z,81.91
2022-11-13T10:46:34.538Z,84.01
2022-11-13T10:49:18.918Z,82.99
2022-11-13T10:51:45.421Z,82.96
2022-11-13T10:54:23.284Z,83.20
2022-11-13T10:57:25.164Z,83.23
2022-11-13T10:59:51.798Z,81.88
2022-11-13T11:02:23.473Z,83.32
2022-11-13T11:04:50.244Z,83.21
2022-11-13T11:07:22.136Z,85.44
2022-11-13T11:09:50.915Z,85.35
2022-11-13T11:12:22.026Z,83.60
2022-11-13T11:14:56.908Z,85.23
2022-11-13T11:17:27.328Z,84.35
2022-11-13T11:20:01.032Z,85.15
2022-11-13T11:22:30.677Z,84.44
2022-11-13T11:25:06.243Z,83.46
2022-11-13T11:27:37.731Z,83.88
2022-11-13T11:30:12.646Z,83.83
2022-11-13T11:32:44.886Z,84.44
2022-11-13T11:35:41.826Z,83.14
2022-11-13T11:38:28.349Z,84.13
2022-11-13T11:41:13.324Z,83.89
2022-11-13T11:43:46.055Z,83.90
2022-11-13T11:46:13.710Z,83.89
2022-11-13T11:48:40.665Z,84.71
2022-11-13T11:51:27.422Z,84.27
2022-11-13T11:53:58.440Z,83.25
2022-11-13T11:56:31.528Z,82.63
2022-11-13T11:59:06.352Z,82.72
2022-11-13T12:02:18.229Z,82.15
2022-11-13T12:05:03.574Z,83.19
2022-11-13T12:07:36.204Z,81.17
2022-11-13T12:10:24.640Z,80.91
2022-11-13T12:13:03.997Z,83.21
2022-11-13T12:16:09.611Z,82.83
2022-11-13T12:18:50.780Z,84.46
2022-11-13T12:21:51.630Z,82.91
2022-11-13T12:24:22.929Z,82.01
2022-11-13T12:27:10.664Z,81.70
2022-11-13T12:30:08.677Z,83.55
2022-11-13T12:32:42.932Z,82.25
2022-11-13T12:35:20.691Z,84.87
2022-11-13T12:37:55.807Z,83.71
2022-11-13T12:40:33.390Z,84.76
2022-11-13T12:43:50.473Z,82.28
2022-11-13T12:46:17.762Z,81.49
2022-11-13T12:48:46.476Z,82.46
2022-11-13T12:51:16.089Z,83.18
2022-11-13T12:53:51.476Z,84.94
2022-11-13T12:56:24.023Z,85.40
2022-11-13T12:59:31.333Z,83.95
2022-11-13T13:02:07.162Z,82.64
2022-11-13T13:04:57.959Z,81.69
2022-11-13T13:07:50.722Z,81.04
2022-11-13T13:10:47.543Z,82.31
2022-11-13T13:13:25.971Z,82.32
2022-11-13T13:15:59.953Z,84.25
2022-11-13T13:18:33.495Z,83.24
2022-11-13T13:21:09.566Z,81.00
2022-11-13T13:23:38.638Z,80.18
2022-11-13T13:26:17.530Z,80.33
2022-11-13T13:28:49.806Z,79.66
2022-11-13T13:31:39.770Z,80.79
2022-11-13T13:34:21.507Z,79.71
2022-11-13T13:36:58.803Z,81.92
2022-11-13T13:40:02.777Z,82.42
2022-11-13T13:42:41.471Z,81.15
2022-11-13T13:45:32.735Z,81.19
2022-11-13T13:48:00.529Z,81.83
2022-11-13T13:50:33.769Z,81.51
2022-11-13T13:53:00.616Z,82.47
2022-11-13T13:55:28.610Z,82.68
2022-11-13T13:57:55.274Z,81.78
2022-11-13T14:00:21.799Z,80.99
2022-11-13T14:02:50.156Z,81.17
2022-11-13T14:05:24.954Z,82.40
2022-11-13T14:07:51.447Z,81.64
2022-11-13T14:10:23.980Z,79.40
2022-11-13T14:12:50.796Z,81.37
2022-11-13T14:15:24.118Z,80.92
2022-11-13T14:17:50.614Z,81.10
2022-11-13T14:20:17.656Z,78.49
2022-11-13T14:22:48.394Z,78.29
2022-11-13T14:25:24.276Z,79.49
2022-11-13T14:27:51.745Z,80.22
2022-11-13T14:30:27.075Z,79.81
2022-11-13T14:32:54.094Z,79.80
2022-11-13T14:35:25.570Z,80.37
2022-11-13T14:37:53.519Z,79.68
2022-11-13T14:40:35.670Z,79.81
2022-11-13T14:43:07.740Z,80.17
2022-11-13T14:45:34.353Z,80.92
2022-11-13T14:48:16.103Z,80.39
2022-11-13T14:50:57.444Z,79.18
2022-11-13T14:53:38.614Z,82.14
2022-11-13T14:56:10.731Z,79.73
2022-11-13T14:58:47.362Z,80.68
2022-11-13T15:01:16.900Z,79.62
2022-11-13T15:03:44.727Z,79.19
2022-11-13T15:06:14.891Z,80.13
2022-11-13T15:08:41.499Z,81.69
2022-11-13T15:11:09.714Z,79.34
2022-11-13T15:13:36.167Z,78.19
2022-11-13T15:16:02.753Z,78.26
2022-11-13T15:18:29.254Z,79.24
2022-11-13T15:20:55.717Z,78.04
2022-11-13T15:23:25.772Z,79.39
2022-11-13T15:25:54.670Z,80.12
2022-11-13T15:28:21.137Z,80.42
2022-11-13T15:30:47.634Z,79.01
2022-11-13T15:33:15.703Z,79.64
2022-11-13T15:35:42.901Z,79.10
2022-11-13T15:38:12.380Z,79.58
2022-11-13T15:40:39.216Z,78.28
2022-11-13T15:43:14.871Z,78.31
2022-11-13T15:45:44.265Z,77.99
2022-11-13T15:48:11.105Z,79.32
2022-11-13T15:50:37.555Z,80.94
2022-11-13T15:53:05.668Z,81.72
2022-11-13T15:55:32.707Z,80.75
2022-11-13T15:58:02.062Z,82.22
2022-11-13T16:00:28.988Z,81.61
2022-11-13T16:02:56.878Z,78.99
2022-11-13T16:05:25.536Z,77.48
2022-11-13T16:07:53.313Z,77.77
2022-11-13T16:10:24.935Z,78.31
2022-11-13T16:12:52.630Z,78.89
2022-11-13T16:15:19.717Z,79.33
2022-11-13T16:17:54.607Z,79.28
2022-11-13T16:20:21.098Z,80.88
2022-11-13T16:22:47.820Z,82.00
2022-11-13T16:25:16.941Z,83.14
2022-11-13T16:27:43.587Z,83.12
2022-11-13T16:30:17.419Z,84.05
2022-11-13T16:32:43.849Z,83.05
2022-11-13T16:35:17.795Z,83.54
2022-11-13T16:37:44.250Z,83.88
2022-11-13T16:40:16.774Z,84.10
2022-11-13T16:42:43.247Z,83.34
2022-11-13T16:45:10.830Z,80.44
2022-11-13T16:47:37.283Z,80.44
2022-11-13T16:50:03.873Z,80.69
2022-11-13T16:52:31.869Z,81.15
2022-11-13T16:55:03.690Z,83.28
2022-11-13T16:57:32.958Z,84.20
2022-11-13T16:59:59.516Z,82.41
2022-11-13T17:02:29.098Z,83.47
2022-11-13T17:04:56.295Z,83.54
2022-11-13T17:07:22.847Z,81.43
2022-11-13T17:10:09.973Z,80.24
2022-11-13T17:12:38.794Z,79.58
2022-11-13T17:15:05.994Z,81.59
2022-11-13T17:17:32.422Z,79.89
2022-11-13T17:19:58.898Z,80.08
2022-11-13T17:22:25.458Z,82.54
2022-11-13T17:24:51.942Z,81.27
2022-11-13T17:27:19.469Z,82.57
2022-11-13T17:29:47.028Z,79.72
2022-11-13T17:32:14.616Z,83.03
2022-11-13T17:34:43.460Z,82.76
2022-11-13T17:37:10.066Z,80.92
2022-11-13T17:39:37.589Z,80.08
2022-11-13T17:42:04.236Z,80.51
2022-11-13T17:44:34.899Z,80.62
2022-11-13T17:47:01.315Z,80.47
2022-11-13T17:49:29.864Z,79.73
2022-11-13T17:51:56.888Z,80.34
2022-11-13T17:54:25.271Z,81.25
2022-11-13T17:56:51.709Z,81.00
2022-11-13T17:59:18.174Z,80.30
2022-11-13T18:01:44.704Z,82.23
2022-11-13T18:04:12.325Z,80.13
2022-11-13T18:06:38.880Z,79.88
2022-11-13T18:09:06.354Z,81.19
2022-11-13T18:11:32.985Z,80.46
2022-11-13T18:14:01.183Z,81.46
2022-11-13T18:16:31.447Z,82.73
2022-11-13T18:19:00.011Z,82.13
2022-11-13T18:21:32.414Z,81.22
2022-11-13T18:24:05.967Z,80.66
2022-11-13T18:26:33.606Z,80.08
2022-11-13T18:29:00.894Z,80.30
2022-11-13T18:31:28.027Z,81.33
2022-11-13T18:33:54.883Z,82.58
2022-11-13T18:36:21.401Z,81.32
2022-11-13T18:38:47.903Z,82.80
2022-11-13T18:41:18.817Z,82.25
2022-11-13T18:43:46.558Z,82.65
2022-11-13T18:46:14.602Z,83.12
2022-11-13T18:48:42.660Z,84.57
2022-11-13T18:51:14.954Z,82.53
2022-11-13T18:53:43.633Z,83.74
2022-11-13T18:56:15.043Z,81.97
2022-11-13T18:58:43.226Z,82.39
2022-11-13T19:01:22.197Z,83.61
2022-11-13T19:04:16.150Z,83.27
2022-11-13T19:06:38.450Z,83.80
2022-11-13T19:09:07.449Z,83.78
2022-11-13T19:11:34.367Z,83.73
2022-11-13T19:14:00.866Z,83.92
2022-11-13T19:16:36.723Z,83.68
2022-11-13T19:19:17.900Z,83.41
2022-11-13T19:21:45.217Z,84.18
2022-11-13T19:24:13.189Z,83.38
2022-11-13T19:26:40.654Z,83.46
2022-11-13T19:29:07.231Z,82.43
2022-11-13T19:31:34.544Z,81.68
2022-11-13T19:34:03.852Z,81.27
2022-11-13T19:36:31.763Z,81.08
2022-11-13T19:38:59.094Z,80.69
2022-11-13T19:41:27.536Z,81.03
2022-11-13T19:43:54.396Z,80.61
2022-11-13T19:46:21.375Z,79.05
2022-11-13T19:48:48.766Z,81.46
2022-11-13T19:51:23.955Z,81.92
2022-11-13T19:53:55.077Z,80.67
2022-11-13T19:56:22.193Z,81.15
2022-11-13T19:58:50.276Z,83.34
2022-11-13T20:01:19.760Z,84.21
2022-11-13T20:03:46.684Z,83.80
2022-11-13T20:06:17.226Z,82.05
2022-11-13T20:08:44.028Z,82.06
2022-11-13T20:11:12.076Z,82.13
2022-11-13T20:13:39.364Z,82.48
2022-11-13T20:16:06.834Z,82.15
2022-11-13T20:18:33.323Z,81.22
2022-11-13T20:21:00.298Z,81.34
2022-11-13T20:23:27.084Z,79.53
2022-11-13T20:25:55.917Z,80.57
2022-11-13T20:28:23.091Z,80.85
2022-11-13T20:30:49.745Z,81.28
2022-11-13T20:33:22.195Z,80.25
2022-11-13T20:35:55.323Z,81.62
2022-11-13T20:38:21.853Z,80.39
2022-11-13T20:40:48.493Z,80.94
2022-11-13T20:43:14.970Z,82.74
2022-11-13T20:45:41.452Z,84.35
2022-11-13T20:48:07.908Z,82.17
2022-11-13T20:50:37.981Z,82.70
2022-11-13T20:53:05.307Z,82.02
2022-11-13T20:55:32.023Z,80.34
2022-11-13T20:57:58.549Z,80.41
2022-11-13T21:00:25.021Z,80.02
2022-11-13T21:02:51.910Z,79.51
2022-11-13T21:05:18.559Z,79.93
2022-11-13T21:07:45.020Z,79.35
2022-11-13T21:10:11.480Z,79.45
2022-11-13T21:12:37.929Z,79.91
2022-11-13T21:15:04.937Z,79.84
2022-11-13T21:17:31.392Z,78.61
2022-11-13T21:19:58.014Z,77.93
2022-11-13T21:22:24.557Z,78.34
2022-11-13T21:24:51.009Z,78.48
2022-11-13T21:27:17.536Z,77.54
2022-11-13T21:29:44.021Z,76.86
2022-11-13T21:32:10.531Z,76.83
2022-11-13T21:34:36.968Z,76.85
2022-11-13T21:37:03.521Z,77.59
2022-11-13T21:39:31.012Z,78.85
2022-11-13T21:41:57.464Z,79.91
2022-11-13T21:44:24.045Z,79.40
2022-11-13T21:46:50.508Z,78.33
2022-11-13T21:49:17.052Z,76.61
2022-11-13T21:51:43.803Z,79.12
2022-11-13T21:54:10.399Z,79.22
2022-11-13T21:56:37.971Z,78.58
2022-11-13T21:59:05.473Z,78.24
2022-11-13T22:01:37.861Z,77.44
2022-11-13T22:04:04.975Z,76.59
2022-11-13T22:06:33.222Z,76.97
2022-11-13T22:09:01.230Z,76.57
2022-11-13T22:11:30.990Z,78.37
2022-11-13T22:13:58.020Z,77.19
2022-11-13T22:16:26.091Z,76.92
2022-11-13T22:18:57.120Z,76.16
2022-11-13T22:21:24.589Z,76.31
2022-11-13T22:23:51.278Z,75.90
2022-11-13T22:26:18.571Z,77.17
2022-11-13T22:28:46.224Z,75.60
2022-11-13T22:31:29.675Z,74.79
2022-11-13T22:33:56.651Z,74.45
2022-11-13T22:36:25.601Z,74.66
2022-11-13T22:38:52.588Z,74.36
2022-11-13T22:41:23.517Z,75.72
2022-11-13T22:43:56.599Z,76.82
2022-11-13T22:46:25.324Z,77.33
2022-11-13T22:48:53.169Z,76.63
2022-11-13T22:51:23.017Z,76.02
2022-11-13T22:53:54.644Z,76.53
2022-11-13T22:56:22.675Z,76.74
2022-11-13T22:58:50.363Z,75.70
2022-11-13T23:01:22.032Z,75.72
2022-11-13T23:03:49.538Z,75.51
2022-11-13T23:06:18.336Z,75.95
2022-11-13T23:08:44.804Z,75.83
2022-11-13T23:11:13.468Z,75.19
2022-11-13T23:13:41.723Z,74.38
2022-11-13T23:16:08.679Z,74.26
2022-11-13T23:18:35.381Z,74.16
2022-11-13T23:21:01.862Z,74.03
2022-11-13T23:23:28.455Z,72.63
2022-11-13T23:25:54.919Z,74.10
2022-11-13T23:28:21.410Z,74.04
2022-11-13T23:30:47.964Z,73.12
2022-11-13T23:33:15.529Z,73.45
2022-11-13T23:35:42.906Z,72.49
2022-11-13T23:38:10.775Z,71.86
2022-11-13T23:40:37.255Z,72.86
2022-11-13T23:43:03.805Z,73.09
2022-11-13T23:45:30.482Z,72.92
2022-11-13T23:47:56.936Z,72.87
2022-11-13T23:50:23.442Z,73.96
2022-11-13T23:52:49.920Z,72.76
2022-11-13T23:55:17.015Z,71.90
2022-11-13T23:57:43.511Z,73.92
